Time;durP1;ratioP1;P1;durP2;ratioP2;P2;SDS_P1;SDS_P2;PMS_P1;PMS_P2;Temp;Humidity;BMP_temperature;BMP_pressure;BME280_temperature;BME280_humidity;BME280_pressure;Samples;Min_cycle;Max_cycle;Signal;HPM_P1;HPM_P2
2022/09/28 00:03:13;;;;;;;0.57;0.47;;;;;;;;;;10565245;27;19923;-75
2022/09/28 00:08:17;;;;;;;0.55;0.50;;;;;;;;;;10571814;27;20048;-75
2022/09/28 00:13:20;;;;;;;;;;;;;;;;;;10574522;27;20093;-75
2022/09/28 00:18:22;;;;;;;0.63;0.55;;;;;;;;;;10566129;27;19919;-74
2022/09/28 00:23:27;;;;;;;1.20;0.30;;;;;;;;;;10568874;27;20127;-75
2022/09/28 00:28:30;;;;;;;;;;;;;;;;;;10571561;27;20036;-74
2022/09/28 00:33:33;;;;;;;1.58;0.70;;;;;;;;;;10554021;27;20273;-74
2022/09/28 00:38:39;;;;;;;0.30;0.30;;;;;;;;;;10577973;27;20061;-74
2022/09/28 00:43:42;;;;;;;0.60;0.43;;;;;;;;;;10575287;27;20063;-74
2022/09/28 00:48:50;;;;;;;1.63;0.20;;;;;;;;;;10565118;27;20417;-74
2022/09/28 00:53:54;;;;;;;0.10;0.10;;;;;;;;;;10568786;27;20035;-74
2022/09/28 00:58:58;;;;;;;0.55;0.20;;;;;;;;;;10576055;27;20071;-74
2022/09/28 01:04:03;;;;;;;0.20;0.20;;;;;;;;;;10573386;27;20110;-74
2022/09/28 01:09:08;;;;;;;0.50;0.30;;;;;;;;;;10572880;27;20429;-74
2022/09/28 01:14:12;;;;;;;0.65;0.40;;;;;;;;;;10572768;28;20118;-74
2022/09/28 01:19:22;;;;;;;3.15;1.00;;;;;;;;;;10581401;27;20493;-73
2022/09/28 01:24:39;;;;;;;24.27;4.18;;;;;;;;;;10575201;27;20123;-74
2022/09/28 01:29:46;;;;;;;13.38;2.85;;;;;;;;;;10574599;27;20096;-76
2022/09/28 01:34:54;;;;;;;11.45;1.98;;;;;;;;;;10570961;27;20317;-75
2022/09/28 01:39:58;;;;;;;28.63;4.78;;;;;;;;;;10574674;27;20067;-75
2022/09/28 01:45:05;;;;;;;7.45;1.48;;;;;;;;;;10578002;27;20043;-74
2022/09/28 01:50:10;;;;;;;10.57;2.25;;;;;;;;;;10568850;28;20530;-75
2022/09/28 01:55:18;;;;;;;24.23;4.53;;;;;;;;;;10575713;28;20539;-75
2022/09/28 02:00:22;;;;;;;21.08;4.15;;;;;;;;;;10570873;28;20142;-76
2022/09/28 02:05:28;;;;;;;32.75;6.15;;;;;;;;;;10577870;28;20035;-76
2022/09/28 02:10:35;;;;;;;37.78;6.55;;;;;;;;;;10579249;28;20500;-76
2022/09/28 02:15:43;;;;;;;17.42;3.90;;;;;;;;;;10574919;28;20073;-74
2022/09/28 02:20:59;;;;;;;14.27;2.92;;;;;;;;;;10578579;27;20039;-74
2022/09/28 02:26:05;;;;;;;33.95;5.45;;;;;;;;;;10583476;27;20043;-73
2022/09/28 02:31:09;;;;;;;46.20;7.82;;;;;;;;;;10577660;27;20883;-73
2022/09/28 02:36:12;;;;;;;28.52;6.00;;;;;;;;;;10571708;27;20069;-74
2022/09/28 02:41:20;;;;;;;3.92;1.13;;;;;;;;;;10575228;27;20043;-73
2022/09/28 02:46:28;;;;;;;1.85;0.75;;;;;;;;;;10576996;27;20035;-74
2022/09/28 02:51:36;;;;;;;0.22;0.22;;;;;;;;;;10569156;27;20174;-74
2022/09/28 02:56:48;;;;;;;1.67;0.80;;;;;;;;;;10573624;27;20527;-74
2022/09/28 03:01:57;;;;;;;0.30;0.30;;;;;;;;;;10566632;28;20118;-74
2022/09/28 03:07:01;;;;;;;0.77;0.30;;;;;;;;;;10574007;28;20418;-74
2022/09/28 03:12:07;;;;;;;1.55;0.30;;;;;;;;;;10566441;28;20245;-75
2022/09/28 03:17:11;;;;;;;0.90;0.50;;;;;;;;;;10563722;28;20036;-75
2022/09/28 03:22:14;;;;;;;1.20;0.40;;;;;;;;;;10569438;27;20050;-74
2022/09/28 03:27:17;;;;;;;2.17;0.47;;;;;;;;;;10577838;27;20040;-74
2022/09/28 03:32:21;;;;;;;2.07;0.60;;;;;;;;;;10559064;27;20039;-74
2022/09/28 03:37:24;;;;;;;2.25;0.40;;;;;;;;;;10573351;27;20039;-75
2022/09/28 03:42:27;;;;;;;2.75;0.68;;;;;;;;;;10575927;27;20040;-75
2022/09/28 03:47:36;;;;;;;0.30;0.20;;;;;;;;;;10572252;27;20028;-74
2022/09/28 03:52:42;;;;;;;2.92;0.30;;;;;;;;;;10581371;27;22840;-74
2022/09/28 03:57:45;;;;;;;1.92;0.20;;;;;;;;;;10577097;27;20535;-75
2022/09/28 04:02:49;;;;;;;0.90;0.35;;;;;;;;;;10574362;27;20039;-74
2022/09/28 04:07:54;;;;;;;0.22;0.22;;;;;;;;;;10569133;27;20062;-73
2022/09/28 04:12:58;;;;;;;0.70;0.30;;;;;;;;;;10575667;27;20039;-74
2022/09/28 04:18:02;;;;;;;0.50;0.50;;;;;;;;;;10574561;27;20043;-76
2022/09/28 04:23:04;;;;;;;;;;;;;;;;;;10556086;27;20440;-75
2022/09/28 04:33:29;;;;;;;0.10;0.10;;;;;;;;;;10574195;27;20054;-76
2022/09/28 04:38:32;;;;;;;0.10;0.10;;;;;;;;;;10576058;27;20260;-76
2022/09/28 04:43:54;;;;;;;3.50;1.50;;;;;;;;;;10573102;27;20035;-74
2022/09/28 04:48:58;;;;;;;0.75;0.10;;;;;;;;;;10576335;27;20538;-75
2022/09/28 04:54:01;;;;;;;;;;;;;;;;;;10577493;27;20040;-74
2022/09/28 04:59:04;;;;;;;0.80;0.30;;;;;;;;;;10579622;27;19926;-76
2022/09/28 05:04:10;;;;;;;17.00;2.67;;;;;;;;;;10559854;27;20035;-72
2022/09/28 05:09:13;;;;;;;;;;;;;;;;;;10575278;27;20154;-75
2022/09/28 05:14:16;;;;;;;0.80;0.60;;;;;;;;;;10569748;27;19959;-74
2022/09/28 05:19:21;;;;;;;0.38;0.38;;;;;;;;;;10551113;27;20042;-75
2022/09/28 05:24:23;;;;;;;;;;;;;;;;;;10570757;27;20040;-75
2022/09/28 05:29:26;;;;;;;0.95;0.50;;;;;;;;;;10565132;27;19924;-75
2022/09/28 05:34:35;;;;;;;0.45;0.28;;;;;;;;;;10568875;27;20050;-76
2022/09/28 05:39:38;;;;;;;1.60;0.47;;;;;;;;;;10572470;27;20031;-76
2022/09/28 05:44:40;;;;;;;1.65;0.93;;;;;;;;;;10568502;28;20061;-75
2022/09/28 05:49:45;;;;;;;0.50;0.50;;;;;;;;;;10568678;27;20123;-74
2022/09/28 05:54:48;;;;;;;0.15;0.15;;;;;;;;;;10569110;27;20139;-76
2022/09/28 05:59:51;;;;;;;0.65;0.50;;;;;;;;;;10568071;27;20038;-75
2022/09/28 06:04:55;;;;;;;0.40;0.40;;;;;;;;;;10567456;27;20119;-75
2022/09/28 06:09:58;;;;;;;0.95;0.30;;;;;;;;;;10568657;27;20496;-76
2022/09/28 06:15:01;;;;;;;0.40;0.40;;;;;;;;;;10568983;28;20046;-76
2022/09/28 06:20:06;;;;;;;0.73;0.63;;;;;;;;;;10565883;27;20050;-76
2022/09/28 06:25:12;;;;;;;2.60;0.90;;;;;;;;;;10558383;28;20296;-76
2022/09/28 06:30:15;;;;;;;1.80;0.90;;;;;;;;;;10564581;27;20043;-75
2022/09/28 06:35:20;;;;;;;0.28;0.28;;;;;;;;;;10548324;27;20046;-76
2022/09/28 06:40:23;;;;;;;1.13;0.50;;;;;;;;;;10547654;28;20053;-75
2022/09/28 06:45:27;;;;;;;1.33;1.20;;;;;;;;;;10551824;27;20155;-73
2022/09/28 06:50:33;;;;;;;0.20;0.20;;;;;;;;;;10556792;28;20059;-74
2022/09/28 06:55:38;;;;;;;0.95;0.85;;;;;;;;;;10555618;28;20138;-76
2022/09/28 07:00:41;;;;;;;0.95;0.70;;;;;;;;;;10559766;28;20223;-76
2022/09/28 07:05:46;;;;;;;0.40;0.40;;;;;;;;;;10531913;28;20040;-76
2022/09/28 07:10:54;;;;;;;1.17;0.93;;;;;;;;;;10560586;28;20046;-75
2022/09/28 07:15:58;;;;;;;3.15;1.42;;;;;;;;;;10552895;28;20040;-75
2022/09/28 07:21:06;;;;;;;1.55;0.93;;;;;;;;;;10548937;28;20040;-76
2022/09/28 07:26:10;;;;;;;1.95;1.25;;;;;;;;;;10562920;28;20085;-75
2022/09/28 07:31:13;;;;;;;1.17;0.70;;;;;;;;;;10559528;28;20500;-74
2022/09/28 07:36:19;;;;;;;0.90;0.75;;;;;;;;;;10548479;28;20035;-74
2022/09/28 07:41:31;;;;;;;1.83;1.00;;;;;;;;;;10555245;28;20047;-74
2022/09/28 07:46:36;;;;;;;;;;;;;;;;;;10554014;28;20036;-75
2022/09/28 07:51:48;;;;;;;2.00;1.23;;;;;;;;;;10551978;28;19931;-75
2022/09/28 07:56:51;;;;;;;0.70;0.70;;;;;;;;;;10540644;28;20051;-76
2022/09/28 08:01:54;;;;;;;2.20;0.85;;;;;;;;;;10558827;28;20067;-74
2022/09/28 08:06:59;;;;;;;1.20;0.60;;;;;;;;;;10561337;27;20030;-74
2022/09/28 08:12:02;;;;;;;3.25;0.90;;;;;;;;;;10557364;27;20131;-75
2022/09/28 08:17:06;;;;;;;0.63;0.57;;;;;;;;;;10553145;27;20109;-76
2022/09/28 08:22:10;;;;;;;1.05;0.45;;;;;;;;;;10556469;27;20040;-76
2022/09/28 08:27:12;;;;;;;;;;;;;;;;;;10558202;27;20034;-74
2022/09/28 08:32:18;;;;;;;1.13;0.70;;;;;;;;;;10556370;27;19919;-75
2022/09/28 08:37:22;;;;;;;1.05;0.47;;;;;;;;;;10553979;27;20519;-74
2022/09/28 08:42:25;;;;;;;;;;;;;;;;;;10562926;27;20039;-74
2022/09/28 08:52:55;;;;;;;0.57;0.52;;;;;;;;;;10558102;27;20059;-75
2022/09/28 08:57:59;;;;;;;0.77;0.60;;;;;;;;;;10563959;27;20484;-76
2022/09/28 09:03:04;;;;;;;1.77;0.77;;;;;;;;;;10551938;27;20125;-74
2022/09/28 09:08:16;;;;;;;1.23;0.73;;;;;;;;;;10565509;27;20042;-75
2022/09/28 09:13:29;;;;;;;0.43;0.40;;;;;;;;;;10555643;27;20039;-76
2022/09/28 09:18:36;;;;;;;1.05;0.47;;;;;;;;;;10568840;27;20711;-75
2022/09/28 09:23:45;;;;;;;0.32;0.30;;;;;;;;;;10559213;27;20143;-75
2022/09/28 09:28:57;;;;;;;0.63;0.63;;;;;;;;;;10566044;27;20127;-75
2022/09/28 09:34:10;;;;;;;0.65;0.40;;;;;;;;;;10558685;27;20036;-75
2022/09/28 09:39:28;;;;;;;1.60;0.68;;;;;;;;;;10560429;27;20069;-75
2022/09/28 09:44:46;;;;;;;2.92;0.77;;;;;;;;;;10566785;27;20036;-75
2022/09/28 09:49:50;;;;;;;0.63;0.43;;;;;;;;;;10550206;27;20102;-76
2022/09/28 09:54:53;;;;;;;;;;;;;;;;;;10570325;27;20046;-75
2022/09/28 09:59:58;;;;;;;1.08;0.70;;;;;;;;;;10566292;27;20026;-75
2022/09/28 10:05:02;;;;;;;1.83;0.88;;;;;;;;;;10568893;27;20083;-75
2022/09/28 10:10:11;;;;;;;1.50;0.60;;;;;;;;;;10566472;28;20036;-76
2022/09/28 10:15:19;;;;;;;4.22;1.00;;;;;;;;;;10570229;28;20058;-74
2022/09/28 10:20:24;;;;;;;1.80;0.98;;;;;;;;;;10569841;27;20044;-75
2022/09/28 10:25:27;;;;;;;1.70;0.60;;;;;;;;;;10569449;27;20040;-75
2022/09/28 10:30:32;;;;;;;0.85;0.52;;;;;;;;;;10571364;27;20054;-76
2022/09/28 10:35:40;;;;;;;1.42;0.80;;;;;;;;;;10561737;28;20036;-76
2022/09/28 10:40:45;;;;;;;0.75;0.57;;;;;;;;;;10568975;27;20054;-77
2022/09/28 10:45:59;;;;;;;1.33;0.68;;;;;;;;;;10568691;28;20463;-76
2022/09/28 10:51:04;;;;;;;0.57;0.50;;;;;;;;;;10573131;27;20411;-76
2022/09/28 10:56:18;;;;;;;1.08;0.65;;;;;;;;;;10571530;28;20031;-76
2022/09/28 11:01:24;;;;;;;2.33;0.80;;;;;;;;;;10569461;28;20423;-75
2022/09/28 11:06:28;;;;;;;0.55;0.45;;;;;;;;;;10560300;28;20055;-76
2022/09/28 11:11:39;;;;;;;0.90;0.82;;;;;;;;;;10567342;28;20047;-76
2022/09/28 11:16:44;;;;;;;4.18;1.00;;;;;;;;;;10563854;28;20039;-76
2022/09/28 11:21:46;;;;;;;1.02;0.60;;;;;;;;;;10563444;28;20113;-75
2022/09/28 11:26:51;;;;;;;2.28;0.93;;;;;;;;;;10562554;28;20044;-77
2022/09/28 11:31:59;;;;;;;3.08;1.02;;;;;;;;;;10548959;28;20326;-77
2022/09/28 11:37:08;;;;;;;0.93;0.55;;;;;;;;;;10561786;28;20054;-76
2022/09/28 11:42:16;;;;;;;1.73;1.10;;;;;;;;;;10561813;28;20053;-76
2022/09/28 11:47:31;;;;;;;3.25;1.40;;;;;;;;;;10571144;28;20027;-76
2022/09/28 11:52:38;;;;;;;2.08;1.20;;;;;;;;;;10559118;28;20076;-75
2022/09/28 11:57:43;;;;;;;1.35;0.90;;;;;;;;;;10562623;27;20032;-76
2022/09/28 12:02:51;;;;;;;1.40;0.88;;;;;;;;;;10564218;28;20122;-74
2022/09/28 12:07:55;;;;;;;3.50;1.40;;;;;;;;;;10562155;27;20362;-75
2022/09/28 12:12:58;;;;;;;;;;;;;;;;;;10566548;27;20054;-75
2022/09/28 12:18:05;;;;;;;2.13;1.15;;;;;;;;;;10573885;27;19928;-75
2022/09/28 12:23:13;;;;;;;3.97;2.08;;;;;;;;;;10563068;28;20040;-75
2022/09/28 12:28:18;;;;;;;2.53;1.20;;;;;;;;;;10576927;27;20135;-74
2022/09/28 12:33:22;;;;;;;3.42;1.40;;;;;;;;;;10573268;27;20043;-76
2022/09/28 12:38:32;;;;;;;2.65;1.15;;;;;;;;;;10562003;27;20139;-75
2022/09/28 12:43:53;;;;;;;1.73;1.05;;;;;;;;;;10552404;27;20488;-74
2022/09/28 12:49:17;;;;;;;3.17;1.48;;;;;;;;;;10570896;27;20071;-76
2022/09/28 12:54:52;;;;;;;1.30;1.00;;;;;;;;;;10564517;27;20051;-75
2022/09/28 13:00:00;;;;;;;3.53;1.23;;;;;;;;;;10555466;27;20056;-77
2022/09/28 13:05:21;;;;;;;13.45;6.30;;;;;;;;;;10574982;27;20457;-75
2022/09/28 13:10:31;;;;;;;1.63;1.20;;;;;;;;;;10578993;27;20043;-76
2022/09/28 13:15:41;;;;;;;3.53;1.38;;;;;;;;;;10569776;27;20028;-76
2022/09/28 13:20:58;;;;;;;4.22;1.65;;;;;;;;;;10571312;27;20043;-75
2022/09/28 13:26:09;;;;;;;3.03;1.70;;;;;;;;;;10574938;27;20032;-76
2022/09/28 13:31:17;;;;;;;5.00;1.40;;;;;;;;;;10573416;28;20552;-75
2022/09/28 13:36:36;;;;;;;4.93;1.80;;;;;;;;;;10578401;27;20500;-74
2022/09/28 13:41:47;;;;;;;6.78;1.20;;;;;;;;;;10566313;28;20131;-74
2022/09/28 13:46:59;;;;;;;2.17;1.13;;;;;;;;;;10571483;27;20119;-76
2022/09/28 13:52:03;;;;;;;2.45;1.50;;;;;;;;;;10574242;27;20122;-76
2022/09/28 13:57:14;;;;;;;5.57;1.85;;;;;;;;;;10558823;27;20111;-75
2022/09/28 14:02:30;;;;;;;4.05;1.70;;;;;;;;;;10567317;27;20054;-75
2022/09/28 14:07:51;;;;;;;2.38;1.50;;;;;;;;;;10571196;28;20039;-76
2022/09/28 14:13:00;;;;;;;3.88;1.73;;;;;;;;;;10566989;27;20475;-76
2022/09/28 14:18:17;;;;;;;5.45;2.70;;;;;;;;;;10561875;28;20117;-76
2022/09/28 14:23:39;;;;;;;3.28;1.58;;;;;;;;;;10566787;28;20049;-74
2022/09/28 14:28:49;;;;;;;7.80;3.50;;;;;;;;;;10568166;28;20053;-75
2022/09/28 14:33:57;;;;;;;3.72;1.90;;;;;;;;;;10566394;28;20503;-76
2022/09/28 14:44:21;;;;;;;2.90;1.70;;;;;;;;;;10558856;27;20039;-77
2022/09/28 14:49:43;;;;;;;2.80;1.63;;;;;;;;;;10554022;28;20035;-77
2022/09/28 14:54:51;;;;;;;5.75;3.08;;;;;;;;;;10567619;27;20338;-76
2022/09/28 14:59:55;;;;;;;4.68;2.08;;;;;;;;;;10562377;28;20289;-76
2022/09/28 15:05:07;;;;;;;5.18;2.33;;;;;;;;;;10551840;28;20514;-75
2022/09/28 15:10:19;;;;;;;4.65;2.22;;;;;;;;;;10556578;28;20464;-76
2022/09/28 15:15:33;;;;;;;6.22;2.70;;;;;;;;;;10567833;28;20450;-76
2022/09/28 15:20:36;;;;;;;2.63;1.27;;;;;;;;;;10553677;28;20072;-76
2022/09/28 15:25:39;;;;;;;2.08;0.93;;;;;;;;;;10577275;27;20062;-75
2022/09/28 15:30:44;;;;;;;3.28;1.98;;;;;;;;;;10577069;27;20074;-76
2022/09/28 15:35:50;;;;;;;2.08;1.50;;;;;;;;;;10572883;27;20459;-75
2022/09/28 15:40:53;;;;;;;4.75;1.90;;;;;;;;;;10574223;28;20050;-76
2022/09/28 15:46:01;;;;;;;5.07;2.30;;;;;;;;;;10573132;28;20118;-76
2022/09/28 15:51:09;;;;;;;4.47;1.77;;;;;;;;;;10563734;28;20063;-76
2022/09/28 15:56:12;;;;;;;4.88;1.95;;;;;;;;;;10572254;27;20075;-76
2022/09/28 16:01:20;;;;;;;4.45;2.00;;;;;;;;;;10578327;27;20114;-76
2022/09/28 16:06:23;;;;;;;7.93;2.00;;;;;;;;;;10572250;27;20118;-76
2022/09/28 16:11:27;;;;;;;4.25;2.10;;;;;;;;;;10570585;28;20071;-76
2022/09/28 16:16:30;;;;;;;;;;;;;;;;;;10576361;27;20036;-78
2022/09/28 16:21:42;;;;;;;1.70;1.20;;;;;;;;;;10572556;28;19927;-76
2022/09/28 16:26:45;;;;;;;0.90;0.55;;;;;;;;;;10568784;27;20042;-77
2022/09/28 16:31:51;;;;;;;2.20;1.37;;;;;;;;;;10576263;28;20449;-76
2022/09/28 16:36:55;;;;;;;5.03;2.25;;;;;;;;;;10579130;27;20039;-76
2022/09/28 16:41:58;;;;;;;;;;;;;;;;;;10562762;28;20036;-74
2022/09/28 16:47:01;;;;;;;2.90;1.27;;;;;;;;;;10561407;27;20032;-76
2022/09/28 16:52:09;;;;;;;5.63;1.63;;;;;;;;;;10559704;28;20062;-75
2022/09/28 16:57:12;;;;;;;4.35;1.77;;;;;;;;;;10554857;27;20038;-76
2022/09/28 17:02:16;;;;;;;6.43;2.60;;;;;;;;;;10534594;28;20044;-75
2022/09/28 17:07:40;;;;;;;4.85;1.05;;;;;;;;;;10561828;27;20051;-76
2022/09/28 17:12:43;;;;;;;4.45;1.80;;;;;;;;;;10551622;28;20499;-76
2022/09/28 17:17:46;;;;;;;4.90;1.95;;;;;;;;;;10561772;27;21278;-74
2022/09/28 17:22:50;;;;;;;5.57;2.30;;;;;;;;;;10553487;27;20128;-76
2022/09/28 17:27:53;;;;;;;;;;;;;;;;;;10548506;28;20058;-76
2022/09/28 17:32:57;;;;;;;0.70;0.60;;;;;;;;;;10577889;27;19955;-76
2022/09/28 17:38:01;;;;;;;2.83;1.65;;;;;;;;;;10545307;27;20552;-75
2022/09/28 17:43:04;;;;;;;;;;;;;;;;;;10552885;27;20044;-76
2022/09/28 17:48:10;;;;;;;4.55;1.17;;;;;;;;;;10545716;27;20273;-76
2022/09/28 17:53:14;;;;;;;7.40;2.38;;;;;;;;;;10565940;27;20058;-76
2022/09/28 17:58:18;;;;;;;10.57;3.47;;;;;;;;;;10559268;27;20051;-77
2022/09/28 18:03:22;;;;;;;6.05;2.17;;;;;;;;;;10555876;27;20123;-75
2022/09/28 18:08:26;;;;;;;7.55;2.80;;;;;;;;;;10562791;27;20035;-76
2022/09/28 18:13:29;;;;;;;;;;;;;;;;;;10547399;27;20051;-76
2022/09/28 18:18:35;;;;;;;2.97;1.33;;;;;;;;;;10552676;27;19920;-76
2022/09/28 18:23:39;;;;;;;5.40;2.25;;;;;;;;;;10566312;27;20047;-76
2022/09/28 18:28:42;;;;;;;;;;;;;;;;;;10578695;27;20050;-76
2022/09/28 18:33:45;;;;;;;3.35;1.77;;;;;;;;;;10556444;28;19923;-76
2022/09/28 18:38:56;;;;;;;8.25;2.95;;;;;;;;;;10561917;27;20036;-77
2022/09/28 18:44:00;;;;;;;2.83;1.13;;;;;;;;;;10548914;27;20122;-76
2022/09/28 18:49:04;;;;;;;5.70;1.90;;;;;;;;;;10567961;28;20594;-76
2022/09/28 18:54:08;;;;;;;3.65;1.50;;;;;;;;;;10557350;28;20051;-77
2022/09/28 18:59:11;;;;;;;;;;;;;;;;;;10564687;28;20040;-76
2022/09/28 19:04:15;;;;;;;2.43;1.70;;;;;;;;;;10557337;28;20281;-76
2022/09/28 19:09:21;;;;;;;1.90;1.35;;;;;;;;;;10546421;28;20039;-76
2022/09/28 19:14:24;;;;;;;3.55;1.77;;;;;;;;;;10562413;28;20043;-73
2022/09/28 19:19:28;;;;;;;3.00;1.55;;;;;;;;;;10560531;28;20032;-75
2022/09/28 19:24:32;;;;;;;3.92;1.88;;;;;;;;;;10557879;28;20043;-74
2022/09/28 19:29:35;;;;;;;4.22;1.77;;;;;;;;;;10569638;28;20139;-74
2022/09/28 19:34:37;;;;;;;4.15;2.03;;;;;;;;;;10559862;28;20092;-73
2022/09/28 19:39:45;;;;;;;2.42;1.63;;;;;;;;;;10550858;28;20465;-74
2022/09/28 19:44:48;;;;;;;4.07;1.67;;;;;;;;;;10564672;28;20565;-74
2022/09/28 19:49:51;;;;;;;4.72;2.13;;;;;;;;;;10565767;28;20089;-74
2022/09/28 19:54:59;;;;;;;9.52;4.22;;;;;;;;;;10564658;28;20058;-75
2022/09/28 20:00:02;;;;;;;3.25;1.70;;;;;;;;;;10570484;28;20580;-76
2022/09/28 20:05:05;;;;;;;18.63;8.25;;;;;;;;;;10555826;27;20040;-76
2022/09/28 20:10:10;;;;;;;1.75;1.30;;;;;;;;;;10565243;27;20074;-76
2022/09/28 20:15:15;;;;;;;6.55;3.58;;;;;;;;;;10571749;28;20059;-77
2022/09/28 20:20:20;;;;;;;2.92;1.15;;;;;;;;;;10550346;27;20040;-77
2022/09/28 20:25:25;;;;;;;4.68;2.50;;;;;;;;;;10560391;28;20047;-76
2022/09/28 20:30:28;;;;;;;2.92;1.60;;;;;;;;;;10566032;27;20035;-76
2022/09/28 20:35:31;;;;;;;0.95;0.80;;;;;;;;;;10563589;28;20054;-76
2022/09/28 20:40:38;;;;;;;3.78;1.70;;;;;;;;;;10566367;28;20172;-76
2022/09/28 20:45:42;;;;;;;2.58;1.20;;;;;;;;;;10552687;28;20063;-76
2022/09/28 20:50:45;;;;;;;0.35;0.20;;;;;;;;;;10548080;27;20410;-77
2022/09/28 20:55:56;;;;;;;1.33;0.93;;;;;;;;;;10560997;27;20046;-76
2022/09/28 21:01:04;;;;;;;2.63;0.95;;;;;;;;;;10562876;28;20039;-75
2022/09/28 21:06:07;;;;;;;0.82;0.55;;;;;;;;;;10572412;27;20358;-76
2022/09/28 21:11:16;;;;;;;1.85;0.65;;;;;;;;;;10570799;27;20031;-75
2022/09/28 21:16:18;;;;;;;1.92;0.93;;;;;;;;;;10572965;28;20046;-75
2022/09/28 21:21:22;;;;;;;1.27;0.90;;;;;;;;;;10569706;28;20032;-75
2022/09/28 21:26:27;;;;;;;2.03;0.63;;;;;;;;;;10565414;28;20035;-74
2022/09/28 21:31:31;;;;;;;0.50;0.50;;;;;;;;;;10569263;27;20036;-75
2022/09/28 21:36:34;;;;;;;1.58;0.77;;;;;;;;;;10554822;28;20044;-75
2022/09/28 21:41:38;;;;;;;2.33;0.85;;;;;;;;;;10559261;27;20475;-75
2022/09/28 21:46:41;;;;;;;1.20;0.77;;;;;;;;;;10563906;28;20054;-75
2022/09/28 21:51:45;;;;;;;1.25;0.73;;;;;;;;;;10564738;27;20142;-75
2022/09/28 21:56:51;;;;;;;1.35;0.70;;;;;;;;;;10563434;28;20496;-75
2022/09/28 22:01:54;;;;;;;1.27;0.82;;;;;;;;;;10562386;27;20043;-75
2022/09/28 22:06:56;;;;;;;1.02;0.70;;;;;;;;;;10561647;27;20231;-76
2022/09/28 22:12:01;;;;;;;0.60;0.45;;;;;;;;;;10545390;27;20044;-74
2022/09/28 22:17:04;;;;;;;0.22;0.22;;;;;;;;;;10560857;27;20065;-74
2022/09/28 22:22:07;;;;;;;2.80;1.08;;;;;;;;;;10555218;27;20036;-75
2022/09/28 22:27:11;;;;;;;2.17;1.10;;;;;;;;;;10546159;28;20036;-75
2022/09/28 22:32:14;;;;;;;3.40;1.30;;;;;;;;;;10576047;27;20412;-75
2022/09/28 22:37:17;;;;;;;3.22;1.20;;;;;;;;;;10554617;28;20035;-75
2022/09/28 22:42:22;;;;;;;0.87;0.57;;;;;;;;;;10550180;28;20511;-76
2022/09/28 22:47:24;;;;;;;3.38;1.30;;;;;;;;;;10562660;27;20166;-77
2022/09/28 22:52:27;;;;;;;2.75;1.35;;;;;;;;;;10562194;28;20583;-76
2022/09/28 22:57:31;;;;;;;3.83;1.15;;;;;;;;;;10570764;27;20503;-77
2022/09/28 23:02:33;;;;;;;;;;;;;;;;;;10565872;27;20037;-76
2022/09/28 23:07:36;;;;;;;3.88;1.40;;;;;;;;;;10567933;28;20360;-76
2022/09/28 23:12:41;;;;;;;2.95;1.30;;;;;;;;;;10561090;28;20062;-75
2022/09/28 23:17:43;;;;;;;1.20;0.80;;;;;;;;;;10568071;28;20046;-75
2022/09/28 23:22:47;;;;;;;1.58;1.13;;;;;;;;;;10555373;28;20047;-75
2022/09/28 23:27:51;;;;;;;2.95;1.25;;;;;;;;;;10552041;28;20111;-75
2022/09/28 23:32:54;;;;;;;0.50;0.50;;;;;;;;;;10545013;28;20032;-75
2022/09/28 23:37:57;;;;;;;1.45;0.70;;;;;;;;;;10569775;27;20492;-75
2022/09/28 23:43:01;;;;;;;1.10;0.70;;;;;;;;;;10564236;27;20130;-75
2022/09/28 23:48:05;;;;;;;1.38;0.93;;;;;;;;;;10548789;28;20129;-75
2022/09/28 23:53:08;;;;;;;1.75;1.00;;;;;;;;;;10568585;27;20042;-75
2022/09/28 23:58:12;;;;;;;1.58;0.95;;;;;;;;;;10573788;27;20494;-76
